Time;durP1;ratioP1;P1;durP2;ratioP2;P2;SDS_P1;SDS_P2;PMS_P1;PMS_P2;Temp;Humidity;BMP_temperature;BMP_pressure;BME280_temperature;BME280_humidity;BME280_pressure;Samples;Min_cycle;Max_cycle;Signal;HPM_P1;HPM_P2
2021/10/19 00:02:17;;;;;;;17.73;11.60;;;11.30;99.90;;;;;;12437429;28;20050;-84
2021/10/19 00:08:20;;;;;;;19.60;12.82;;;11.40;99.90;;;;;;12448823;28;20140;-85
2021/10/19 00:14:21;;;;;;;18.20;12.38;;;11.50;99.90;;;;;;12450924;28;20053;-84
2021/10/19 00:20:23;;;;;;;20.05;12.40;;;11.50;99.90;;;;;;12436127;28;20055;-84
2021/10/19 00:26:25;;;;;;;17.77;12.02;;;11.60;99.90;;;;;;12426348;28;20477;-83
2021/10/19 00:32:27;;;;;;;20.33;12.88;;;11.60;99.90;;;;;;12421318;28;20477;-85
2021/10/19 00:38:29;;;;;;;19.85;12.35;;;11.70;99.90;;;;;;12433186;28;20053;-85
2021/10/19 00:44:31;;;;;;;20.27;13.10;;;11.70;99.90;;;;;;12423610;28;20042;-84
2021/10/19 00:50:33;;;;;;;20.35;13.30;;;11.70;99.90;;;;;;12451040;28;20041;-83
2021/10/19 00:56:39;;;;;;;21.98;13.68;;;11.70;99.90;;;;;;12421338;28;20057;-84
2021/10/19 01:02:43;;;;;;;18.27;12.82;;;11.80;99.90;;;;;;12422055;28;20521;-85
2021/10/19 01:08:46;;;;;;;20.30;13.30;;;11.80;99.90;;;;;;12434443;28;20426;-84
2021/10/19 01:14:48;;;;;;;19.75;13.23;;;11.80;99.90;;;;;;12430859;28;20156;-85
2021/10/19 01:20:50;;;;;;;20.17;13.50;;;11.80;99.90;;;;;;12432729;28;20444;-86
2021/10/19 01:26:52;;;;;;;19.15;12.95;;;11.80;99.90;;;;;;12424453;28;20061;-86
2021/10/19 01:32:54;;;;;;;19.17;12.63;;;11.90;99.90;;;;;;12430283;28;20053;-83
2021/10/19 01:38:56;;;;;;;19.70;13.02;;;12.00;99.90;;;;;;12448728;28;20064;-85
2021/10/19 01:44:58;;;;;;;19.77;12.98;;;11.90;99.90;;;;;;12441676;28;20115;-84
2021/10/19 01:51:00;;;;;;;18.95;12.43;;;12.00;99.90;;;;;;12423861;28;20049;-83
2021/10/19 01:57:02;;;;;;;16.67;12.02;;;12.10;99.90;;;;;;12427186;28;20041;-85
2021/10/19 02:03:08;;;;;;;16.88;11.55;;;12.10;99.90;;;;;;12431672;28;20042;-85
2021/10/19 02:09:10;;;;;;;16.90;11.35;;;12.20;99.90;;;;;;12419409;28;20060;-85
2021/10/19 02:15:12;;;;;;;14.70;10.60;;;12.30;99.90;;;;;;12452081;28;20471;-85
2021/10/19 02:21:14;;;;;;;17.15;11.23;;;12.40;99.90;;;;;;12436183;28;20049;-85
2021/10/19 02:27:16;;;;;;;15.80;10.45;;;12.40;99.90;;;;;;12428859;28;20056;-84
2021/10/19 02:33:17;;;;;;;16.95;11.25;;;12.40;99.90;;;;;;12451205;28;20050;-85
2021/10/19 02:39:19;;;;;;;16.52;10.80;;;12.50;99.90;;;;;;12438199;28;20140;-85
2021/10/19 02:45:22;;;;;;;17.17;11.23;;;12.50;99.90;;;;;;12441893;28;20430;-83
2021/10/19 02:51:24;;;;;;;12.82;9.85;;;12.70;99.90;;;;;;12458559;28;20493;-85
2021/10/19 02:57:26;;;;;;;14.70;10.77;;;12.60;99.90;;;;;;12433891;28;20061;-84
2021/10/19 03:03:28;;;;;;;17.95;11.80;;;12.60;99.90;;;;;;12435172;28;20041;-84
2021/10/19 03:09:30;;;;;;;16.02;11.07;;;12.60;99.90;;;;;;12432070;28;20050;-85
2021/10/19 03:15:32;;;;;;;17.38;11.48;;;12.80;99.90;;;;;;12443802;28;20049;-84
2021/10/19 03:21:33;;;;;;;16.83;11.38;;;12.70;99.90;;;;;;12441842;28;20049;-85
2021/10/19 03:27:35;;;;;;;15.82;10.70;;;12.70;99.90;;;;;;12434138;28;20049;-85
2021/10/19 03:33:38;;;;;;;16.52;11.45;;;12.80;99.90;;;;;;12454183;28;20075;-84
2021/10/19 03:39:40;;;;;;;17.20;10.50;;;12.70;99.90;;;;;;12436752;28;20479;-84
2021/10/19 03:45:41;;;;;;;15.55;10.63;;;12.70;99.90;;;;;;12428342;28;20127;-85
2021/10/19 03:51:44;;;;;;;15.65;10.88;;;12.70;99.90;;;;;;12431007;28;20045;-84
2021/10/19 03:57:45;;;;;;;16.48;10.55;;;12.70;99.90;;;;;;12459959;28;20477;-84
2021/10/19 04:03:47;;;;;;;13.57;10.30;;;12.80;99.90;;;;;;12433673;28;20365;-84
2021/10/19 04:09:49;;;;;;;15.55;10.70;;;12.80;99.90;;;;;;12441316;28;20549;-84
2021/10/19 04:15:51;;;;;;;18.50;10.80;;;12.80;99.90;;;;;;12452814;28;20113;-86
2021/10/19 04:21:53;;;;;;;15.80;10.77;;;12.90;99.90;;;;;;12441942;28;20148;-85
2021/10/19 04:27:54;;;;;;;12.88;9.85;;;12.80;99.90;;;;;;12431516;28;20133;-84
2021/10/19 04:33:59;;;;;;;14.05;9.82;;;12.90;99.90;;;;;;12455276;28;20042;-86
2021/10/19 04:40:01;;;;;;;12.73;9.52;;;13.00;99.90;;;;;;12430240;28;20061;-84
2021/10/19 04:46:03;;;;;;;13.52;9.85;;;13.00;99.90;;;;;;12380298;28;20466;-86
2021/10/19 04:52:05;;;;;;;13.32;9.30;;;12.90;99.90;;;;;;12370915;28;20058;-84
2021/10/19 04:58:07;;;;;;;14.27;9.38;;;12.90;99.90;;;;;;12372145;28;20097;-85
2021/10/19 05:04:14;;;;;;;13.82;10.40;;;12.80;99.90;;;;;;12369052;28;20459;-86
2021/10/19 05:10:17;;;;;;;14.32;10.15;;;12.70;99.90;;;;;;12376918;28;20463;-86
2021/10/19 05:16:19;;;;;;;15.75;9.98;;;12.70;99.90;;;;;;12369937;28;20046;-84
2021/10/19 05:22:22;;;;;;;15.65;10.50;;;12.60;99.90;;;;;;12366109;28;20085;-86
2021/10/19 05:28:24;;;;;;;15.88;10.27;;;12.60;99.90;;;;;;12368777;28;20051;-85
2021/10/19 05:34:26;;;;;;;14.63;11.18;;;12.50;99.90;;;;;;12376972;28;20050;-85
2021/10/19 05:40:28;;;;;;;15.32;11.07;;;12.50;99.90;;;;;;12371740;28;20399;-86
2021/10/19 05:46:30;;;;;;;17.15;12.50;;;12.50;99.90;;;;;;12371230;28;20498;-83
2021/10/19 05:52:32;;;;;;;17.98;11.75;;;12.60;99.90;;;;;;12371247;28;20046;-84
2021/10/19 05:58:34;;;;;;;18.23;11.35;;;12.60;99.90;;;;;;12367831;28;20050;-83
2021/10/19 06:04:36;;;;;;;18.88;11.57;;;12.70;99.90;;;;;;12375126;28;20285;-85
2021/10/19 06:10:38;;;;;;;15.57;11.65;;;12.80;99.90;;;;;;12364044;28;20081;-83
2021/10/19 06:16:40;;;;;;;15.65;11.27;;;12.80;99.90;;;;;;12369608;28;20091;-85
2021/10/19 06:22:42;;;;;;;15.98;10.77;;;12.80;99.90;;;;;;12366945;28;20046;-83
2021/10/19 06:28:44;;;;;;;14.93;11.05;;;12.80;99.90;;;;;;12365268;28;20133;-85
2021/10/19 06:34:45;;;;;;;19.20;12.35;;;12.80;99.90;;;;;;12366870;28;20494;-84
2021/10/19 06:40:47;;;;;;;21.90;11.95;;;12.70;99.90;;;;;;12368096;28;20081;-84
2021/10/19 06:46:49;;;;;;;18.08;11.68;;;12.70;99.90;;;;;;12436684;28;20131;-83
2021/10/19 06:52:51;;;;;;;21.85;12.05;;;12.70;99.90;;;;;;12425047;28;20049;-85
2021/10/19 06:58:53;;;;;;;19.42;12.75;;;12.70;99.90;;;;;;12439194;28;20061;-83
2021/10/19 07:04:55;;;;;;;17.30;12.13;;;12.70;99.90;;;;;;12451746;28;20045;-85
2021/10/19 07:10:59;;;;;;;16.85;12.35;;;12.70;99.90;;;;;;12432902;28;20049;-84
2021/10/19 07:17:00;;;;;;;16.23;11.88;;;12.80;99.90;;;;;;12435457;28;20049;-83
2021/10/19 07:23:03;;;;;;;17.38;11.80;;;12.80;99.90;;;;;;12450565;28;20049;-83
2021/10/19 07:29:06;;;;;;;17.92;10.95;;;12.90;99.90;;;;;;12438516;28;20109;-83
2021/10/19 07:35:08;;;;;;;17.45;9.77;;;13.00;99.90;;;;;;12439808;28;20435;-84
2021/10/19 07:41:10;;;;;;;14.10;10.05;;;13.10;99.90;;;;;;12459874;28;20103;-83
2021/10/19 07:47:12;;;;;;;17.30;10.55;;;13.20;99.90;;;;;;12452314;28;20045;-84
2021/10/19 07:53:15;;;;;;;14.18;9.02;;;13.20;99.90;;;;;;12432615;28;20048;-84
2021/10/19 07:59:17;;;;;;;13.25;8.65;;;13.20;99.90;;;;;;12454067;28;20559;-82
2021/10/19 08:05:20;;;;;;;10.90;8.32;;;13.40;99.90;;;;;;12422356;28;20045;-83
2021/10/19 08:11:22;;;;;;;12.82;8.65;;;13.40;99.90;;;;;;12451074;28;20547;-83
2021/10/19 08:17:24;;;;;;;15.85;9.90;;;13.40;99.90;;;;;;12439471;28;20065;-83
2021/10/19 08:23:27;;;;;;;12.00;9.20;;;13.20;99.90;;;;;;12436703;28;20111;-83
2021/10/19 08:29:30;;;;;;;18.13;10.55;;;13.20;99.90;;;;;;12449429;28;20054;-83
2021/10/19 08:35:31;;;;;;;15.35;10.52;;;13.00;99.90;;;;;;12449164;28;20057;-85
2021/10/19 08:41:36;;;;;;;16.40;11.98;;;12.90;99.90;;;;;;12448546;28;20053;-84
2021/10/19 08:47:41;;;;;;;16.38;11.52;;;12.80;99.90;;;;;;12452333;28;20505;-84
2021/10/19 08:53:43;;;;;;;15.23;11.43;;;12.80;99.90;;;;;;12444309;28;20046;-83
2021/10/19 08:59:48;;;;;;;20.60;11.77;;;12.80;99.90;;;;;;12442202;28;20053;-85
2021/10/19 09:05:50;;;;;;;13.85;11.05;;;12.80;99.90;;;;;;12428761;28;20398;-84
2021/10/19 09:11:57;;;;;;;15.48;11.00;;;12.80;99.90;;;;;;12425405;28;20037;-84
2021/10/19 09:18:08;;;;;;;17.88;11.73;;;12.80;99.90;;;;;;12418627;28;20522;-86
2021/10/19 09:24:38;;;;;;;16.17;11.02;;;12.80;99.90;;;;;;12446733;28;20067;-83
2021/10/19 09:30:49;;;;;;;13.90;10.38;;;12.80;99.90;;;;;;12424396;28;20053;-84
2021/10/19 09:36:52;;;;;;;18.02;11.32;;;12.80;99.90;;;;;;12449099;28;20095;-84
2021/10/19 09:43:01;;;;;;;16.25;11.25;;;12.80;99.90;;;;;;12444172;28;20118;-84
2021/10/19 09:49:04;;;;;;;13.73;9.95;;;13.00;99.90;;;;;;12451691;28;20041;-85
2021/10/19 09:55:10;;;;;;;16.60;10.43;;;13.00;99.90;;;;;;12444284;28;20069;-83
2021/10/19 10:01:12;;;;;;;13.23;9.68;;;13.10;99.90;;;;;;12431523;28;20041;-83
2021/10/19 10:07:16;;;;;;;13.65;9.45;;;13.10;99.90;;;;;;12433027;28;20041;-84
2021/10/19 10:13:17;;;;;;;12.55;8.50;;;13.20;99.90;;;;;;12430040;28;20045;-86
2021/10/19 10:19:20;;;;;;;11.18;8.40;;;13.20;99.90;;;;;;12434552;28;20054;-84
2021/10/19 10:25:24;;;;;;;11.15;7.80;;;13.30;99.90;;;;;;12437394;28;20069;-84
2021/10/19 10:31:26;;;;;;;10.93;7.40;;;13.40;99.90;;;;;;12431394;28;20136;-84
2021/10/19 10:37:55;;;;;;;11.07;7.43;;;13.50;99.90;;;;;;12440216;28;20288;-86
2021/10/19 10:43:59;;;;;;;10.85;6.65;;;13.60;99.90;;;;;;12435016;28;20140;-82
2021/10/19 10:50:03;;;;;;;10.80;6.90;;;13.70;99.90;;;;;;12432438;28;20226;-86
2021/10/19 10:56:07;;;;;;;11.73;7.13;;;13.80;99.90;;;;;;12447333;28;20057;-85
2021/10/19 11:02:10;;;;;;;10.95;6.65;;;14.00;99.90;;;;;;12435136;28;20045;-83
2021/10/19 11:08:20;;;;;;;10.60;6.30;;;13.90;99.90;;;;;;12432743;28;20115;-83
2021/10/19 11:14:23;;;;;;;13.57;6.45;;;13.90;99.90;;;;;;12447930;28;20060;-85
2021/10/19 11:20:26;;;;;;;8.87;5.47;;;14.00;99.90;;;;;;12455196;28;20080;-84
2021/10/19 11:26:28;;;;;;;10.07;6.60;;;14.00;99.90;;;;;;12439514;28;20426;-86
2021/10/19 11:32:33;;;;;;;9.93;6.23;;;14.10;99.90;;;;;;12438497;28;20132;-84
2021/10/19 11:38:50;;;;;;;10.77;6.70;;;14.20;99.90;;;;;;12439453;28;20530;-84
2021/10/19 11:44:53;;;;;;;10.82;6.32;;;14.30;99.90;;;;;;12461449;28;20770;-85
2021/10/19 11:50:55;;;;;;;9.45;6.43;;;14.30;99.90;;;;;;12453124;28;20045;-84
2021/10/19 11:57:00;;;;;;;12.07;6.18;;;14.30;99.90;;;;;;12459300;28;20049;-84
2021/10/19 12:03:03;;;;;;;10.70;6.43;;;14.30;99.90;;;;;;12456115;28;21201;-84
2021/10/19 12:09:22;;;;;;;8.10;5.90;;;14.40;99.90;;;;;;12455691;28;20729;-83
2021/10/19 12:15:27;;;;;;;9.68;6.53;;;14.40;99.90;;;;;;12455479;28;20054;-83
2021/10/19 12:21:32;;;;;;;8.02;5.78;;;14.50;99.90;;;;;;12432359;28;20478;-85
2021/10/19 12:27:36;;;;;;;7.03;5.03;;;14.60;99.90;;;;;;12455827;28;20132;-86
2021/10/19 12:33:39;;;;;;;8.10;4.70;;;14.60;99.90;;;;;;12434351;28;20171;-83
2021/10/19 12:39:46;;;;;;;5.45;4.68;;;14.60;99.90;;;;;;12437663;28;20073;-84
2021/10/19 12:45:48;;;;;;;5.95;4.50;;;14.70;99.90;;;;;;12439052;28;20077;-84
2021/10/19 12:51:51;;;;;;;9.00;4.25;;;14.60;99.90;;;;;;12437663;28;20149;-84
2021/10/19 12:57:53;;;;;;;5.13;3.97;;;14.50;99.90;;;;;;12460869;28;20570;-83
2021/10/19 13:03:56;;;;;;;5.85;3.92;;;14.40;99.90;;;;;;12451616;28;20049;-86
2021/10/19 13:09:58;;;;;;;4.88;3.72;;;14.40;99.90;;;;;;12442585;28;20428;-86
2021/10/19 13:16:01;;;;;;;6.18;3.72;;;14.40;99.90;;;;;;12428035;28;20041;-84
2021/10/19 13:22:04;;;;;;;4.57;3.50;;;14.40;99.90;;;;;;12450578;28;20583;-84
2021/10/19 13:28:06;;;;;;;4.18;3.63;;;14.40;99.90;;;;;;12433494;28;20049;-84
2021/10/19 13:34:08;;;;;;;4.50;3.40;;;14.50;99.90;;;;;;12440412;28;20041;-85
2021/10/19 13:40:10;;;;;;;3.92;2.92;;;14.50;99.90;;;;;;12451511;28;20057;-85
2021/10/19 13:46:12;;;;;;;3.58;2.88;;;14.50;99.90;;;;;;12423770;28;20577;-85
2021/10/19 13:52:14;;;;;;;3.50;2.80;;;14.40;99.90;;;;;;12432521;28;20044;-86
2021/10/19 13:58:19;;;;;;;5.40;2.88;;;14.50;99.90;;;;;;12435159;28;20552;-84
2021/10/19 14:04:22;;;;;;;3.80;3.20;;;14.50;99.90;;;;;;12430469;28;20588;-85
2021/10/19 14:10:24;;;;;;;3.50;3.00;;;14.60;99.90;;;;;;12427634;28;20071;-84
2021/10/19 14:16:26;;;;;;;3.47;2.33;;;14.50;99.90;;;;;;12437492;28;20106;-86
2021/10/19 14:22:28;;;;;;;3.40;2.45;;;14.60;99.90;;;;;;12429655;28;20049;-85
2021/10/19 14:28:30;;;;;;;4.63;2.70;;;14.50;99.90;;;;;;12423938;28;20049;-84
2021/10/19 14:34:33;;;;;;;3.22;2.70;;;14.60;99.90;;;;;;12422082;28;20049;-84
2021/10/19 14:40:35;;;;;;;4.03;2.72;;;14.70;99.90;;;;;;12428712;28;20578;-84
2021/10/19 14:46:38;;;;;;;4.60;2.70;;;14.80;99.90;;;;;;12439414;28;20394;-84
2021/10/19 14:52:40;;;;;;;5.28;3.13;;;14.80;99.90;;;;;;12429220;28;20176;-84
2021/10/19 14:58:42;;;;;;;5.72;2.70;;;14.90;99.90;;;;;;12451031;28;20049;-84
2021/10/19 15:04:44;;;;;;;4.15;2.92;;;15.10;99.90;;;;;;12425337;28;20046;-85
2021/10/19 15:10:46;;;;;;;3.15;2.70;;;15.10;99.90;;;;;;12436017;28;20128;-84
2021/10/19 15:16:48;;;;;;;3.13;2.45;;;15.20;99.90;;;;;;12445185;28;20883;-84
2021/10/19 15:22:50;;;;;;;5.38;2.97;;;15.20;99.90;;;;;;12433480;28;20068;-84
2021/10/19 15:28:54;;;;;;;4.47;3.15;;;15.20;99.90;;;;;;12442821;28;20049;-84
2021/10/19 15:34:56;;;;;;;4.40;3.20;;;15.20;99.90;;;;;;12441921;28;20049;-85
2021/10/19 15:40:58;;;;;;;5.22;4.50;;;15.20;99.90;;;;;;12428808;28;20045;-86
2021/10/19 15:47:01;;;;;;;6.90;5.30;;;15.30;99.90;;;;;;12432618;28;20096;-84
2021/10/19 15:53:03;;;;;;;7.17;6.47;;;15.50;99.90;;;;;;12445998;28;20049;-84
2021/10/19 15:59:06;;;;;;;9.02;7.28;;;15.50;99.90;;;;;;12449556;28;20057;-85
2021/10/19 16:05:08;;;;;;;9.15;7.70;;;15.50;99.90;;;;;;12456380;28;20157;-86
2021/10/19 16:11:09;;;;;;;10.13;8.60;;;15.60;99.90;;;;;;12451709;28;20179;-84
2021/10/19 16:17:11;;;;;;;10.43;8.93;;;15.50;99.90;;;;;;12431735;28;21218;-85
2021/10/19 16:23:13;;;;;;;9.95;8.93;;;15.60;99.90;;;;;;12436784;28;20045;-85
2021/10/19 16:29:15;;;;;;;10.50;9.50;;;15.70;99.90;;;;;;12424169;28;20053;-84
2021/10/19 16:35:17;;;;;;;11.52;10.32;;;15.70;99.90;;;;;;12424492;28;20445;-85
2021/10/19 16:41:19;;;;;;;11.05;9.93;;;15.80;99.90;;;;;;12432006;28;20073;-87
2021/10/19 16:47:21;;;;;;;12.63;10.43;;;15.90;99.90;;;;;;12375181;28;20062;-84
2021/10/19 16:53:23;;;;;;;10.90;9.75;;;15.90;99.90;;;;;;12363040;28;20133;-86
2021/10/19 16:59:25;;;;;;;13.45;9.23;;;15.90;99.90;;;;;;12369499;28;20062;-85
2021/10/19 17:05:30;;;;;;;11.32;9.70;;;16.00;99.90;;;;;;12368659;28;20045;-85
2021/10/19 17:11:32;;;;;;;12.45;10.60;;;15.90;99.90;;;;;;12366603;28;20066;-85
2021/10/19 17:17:34;;;;;;;15.88;11.57;;;15.90;99.90;;;;;;12367652;28;20054;-85
2021/10/19 17:23:37;;;;;;;13.35;11.43;;;15.90;99.90;;;;;;12364051;28;20116;-86
2021/10/19 17:29:39;;;;;;;17.73;10.15;;;16.00;99.90;;;;;;12364287;28;20554;-84
2021/10/19 17:35:41;;;;;;;11.30;9.02;;;16.00;99.90;;;;;;12362378;28;20127;-86
2021/10/19 17:41:43;;;;;;;10.45;8.73;;;15.90;99.90;;;;;;12357413;28;20133;-85
2021/10/19 17:47:48;;;;;;;11.27;8.27;;;15.90;99.90;;;;;;12391011;28;20080;-86
2021/10/19 17:53:50;;;;;;;11.52;8.63;;;15.90;99.90;;;;;;12383417;28;20076;-85
2021/10/19 17:59:52;;;;;;;11.15;9.45;;;15.90;99.90;;;;;;12397121;28;20054;-85
2021/10/19 18:05:54;;;;;;;10.40;8.63;;;15.90;99.90;;;;;;12395919;28;20045;-85
2021/10/19 18:11:55;;;;;;;12.10;8.88;;;15.90;99.90;;;;;;12392484;28;20056;-87
2021/10/19 18:17:59;;;;;;;11.40;9.63;;;16.00;99.90;;;;;;12397405;28;20080;-85
2021/10/19 18:24:00;;;;;;;11.83;10.23;;;16.00;99.90;;;;;;12393317;28;20050;-85
2021/10/19 18:30:03;;;;;;;12.30;10.90;;;16.00;99.90;;;;;;12394832;28;20077;-86
2021/10/19 18:36:05;;;;;;;12.73;10.50;;;16.00;99.90;;;;;;12388378;28;20107;-87
2021/10/19 18:42:07;;;;;;;11.70;10.50;;;16.00;99.90;;;;;;12396828;28;20054;-86
2021/10/19 18:48:09;;;;;;;11.20;10.10;;;16.10;99.90;;;;;;12434054;28;20172;-85
2021/10/19 18:54:11;;;;;;;11.48;10.15;;;16.10;99.90;;;;;;12429072;28;20053;-86
2021/10/19 19:00:14;;;;;;;11.38;9.95;;;16.20;99.90;;;;;;12438700;28;20140;-86
2021/10/19 19:06:17;;;;;;;9.98;8.98;;;16.10;99.90;;;;;;12438660;28;20579;-86
2021/10/19 19:12:19;;;;;;;8.95;7.53;;;16.20;99.90;;;;;;12441496;28;20564;-86
2021/10/19 19:18:21;;;;;;;7.53;6.82;;;16.20;99.90;;;;;;12443834;28;20060;-86
2021/10/19 19:24:23;;;;;;;6.85;5.85;;;16.20;99.90;;;;;;12445197;28;20112;-88
2021/10/19 19:30:25;;;;;;;9.10;6.68;;;16.20;99.90;;;;;;12434953;28;20513;-86
2021/10/19 19:36:27;;;;;;;8.05;6.85;;;16.20;99.90;;;;;;12455036;28;20053;-85
2021/10/19 19:42:31;;;;;;;9.25;7.43;;;16.10;99.90;;;;;;12435542;28;20059;-87
2021/10/19 19:48:33;;;;;;;10.73;7.40;;;16.10;99.90;;;;;;12436952;28;20088;-86
2021/10/19 19:54:35;;;;;;;8.48;6.65;;;16.10;99.90;;;;;;12454101;28;20413;-88
2021/10/19 20:00:38;;;;;;;10.48;6.68;;;16.00;99.90;;;;;;12454676;28;20185;-85
2021/10/19 20:06:40;;;;;;;8.77;5.88;;;16.00;99.90;;;;;;12433575;28;20053;-86
2021/10/19 20:12:43;;;;;;;6.88;6.07;;;15.90;99.90;;;;;;12435363;28;20041;-86
2021/10/19 20:18:46;;;;;;;8.65;5.90;;;15.90;99.90;;;;;;12434323;28;20065;-85
2021/10/19 20:24:48;;;;;;;9.77;6.10;;;15.80;99.90;;;;;;12452060;28;20495;-86
2021/10/19 20:30:50;;;;;;;10.07;6.15;;;15.80;99.90;;;;;;12428429;28;20127;-86
2021/10/19 20:36:52;;;;;;;6.95;5.65;;;15.90;99.90;;;;;;12437069;28;20057;-84
2021/10/19 20:42:54;;;;;;;8.07;5.65;;;15.80;99.90;;;;;;12425224;28;20087;-86
2021/10/19 20:48:56;;;;;;;6.88;4.82;;;15.80;99.90;;;;;;12450701;28;20136;-87
2021/10/19 20:54:58;;;;;;;9.60;5.07;;;15.80;99.90;;;;;;12431839;28;20045;-87
2021/10/19 21:01:01;;;;;;;10.07;5.50;;;15.60;99.90;;;;;;12434854;28;20102;-87
2021/10/19 21:07:03;;;;;;;8.25;5.25;;;15.50;99.90;;;;;;12455364;28;20049;-87
2021/10/19 21:13:06;;;;;;;9.38;5.68;;;15.50;99.90;;;;;;12429395;28;20095;-86
2021/10/19 21:19:08;;;;;;;7.55;4.95;;;15.50;99.90;;;;;;12447324;28;20057;-87
2021/10/19 21:25:12;;;;;;;9.90;5.25;;;15.50;99.90;;;;;;12433521;28;20041;-85
2021/10/19 21:31:14;;;;;;;11.33;5.70;;;15.50;99.90;;;;;;12435828;28;20124;-88
2021/10/19 21:37:16;;;;;;;8.38;5.38;;;15.50;99.90;;;;;;12449141;28;20415;-86
2021/10/19 21:43:18;;;;;;;8.65;6.18;;;15.50;99.90;;;;;;12439830;28;20073;-86
2021/10/19 21:49:20;;;;;;;8.52;6.30;;;15.50;99.90;;;;;;12437441;28;20977;-85
2021/10/19 21:55:23;;;;;;;10.82;5.88;;;15.60;99.90;;;;;;12435308;28;20045;-87
2021/10/19 22:01:25;;;;;;;8.60;6.28;;;15.60;99.90;;;;;;12447395;28;20465;-86
2021/10/19 22:07:28;;;;;;;7.90;5.68;;;15.60;99.90;;;;;;12421682;28;20496;-85
2021/10/19 22:13:30;;;;;;;7.68;6.03;;;15.60;99.90;;;;;;12424785;28;20370;-84
2021/10/19 22:19:32;;;;;;;9.57;6.00;;;15.60;99.90;;;;;;12429782;28;20123;-86
2021/10/19 22:31:54;;;;;;;8.93;5.70;;;15.50;99.90;;;;;;12452223;28;20045;-86
2021/10/19 22:37:56;;;;;;;8.65;6.20;;;15.50;99.90;;;;;;12437792;28;20049;-85
2021/10/19 22:43:58;;;;;;;10.25;6.85;;;15.50;99.90;;;;;;12439925;28;20061;-86
2021/10/19 22:50:00;;;;;;;10.02;6.47;;;15.50;99.90;;;;;;12439063;28;20132;-85
2021/10/19 22:56:02;;;;;;;8.02;6.30;;;15.40;99.90;;;;;;12431428;28;20179;-85
2021/10/19 23:02:04;;;;;;;9.65;6.30;;;15.30;99.90;;;;;;12455748;28;20053;-85
2021/10/19 23:08:06;;;;;;;10.27;6.53;;;15.40;99.90;;;;;;12439378;28;20053;-87
2021/10/19 23:14:08;;;;;;;9.48;5.97;;;15.30;99.90;;;;;;12453306;28;20465;-84
2021/10/19 23:20:15;;;;;;;8.38;5.90;;;15.30;99.90;;;;;;12427481;28;20049;-84
2021/10/19 23:26:16;;;;;;;12.23;6.13;;;15.20;99.90;;;;;;12439225;28;20094;-84
2021/10/19 23:32:18;;;;;;;8.23;5.75;;;15.20;99.90;;;;;;12459167;28;20067;-84
2021/10/19 23:38:20;;;;;;;8.25;5.50;;;15.20;99.90;;;;;;12432374;28;20061;-84
2021/10/19 23:44:22;;;;;;;9.25;5.88;;;15.30;99.90;;;;;;12393663;28;1071779;-85
2021/10/19 23:50:25;;;;;;;6.30;4.80;;;15.20;99.90;;;;;;12432692;28;20103;-85
2021/10/19 23:56:27;;;;;;;7.20;5.03;;;15.20;99.90;;;;;;12453572;28;20545;-84
